createdAt,value
2017-11-03T00:00:45.727Z,0.00
2017-11-03T00:01:45.723Z,0.00
2017-11-03T00:02:45.718Z,0.00
2017-11-03T00:03:45.713Z,0.00
2017-11-03T00:04:45.714Z,0.00
2017-11-03T00:05:45.711Z,0.00
2017-11-03T00:06:45.714Z,0.00
2017-11-03T00:07:45.706Z,0.00
2017-11-03T00:08:45.706Z,0.00
2017-11-03T00:09:45.694Z,0.00
2017-11-03T00:10:45.693Z,0.00
2017-11-03T00:11:45.686Z,0.00
2017-11-03T00:12:45.677Z,0.00
2017-11-03T00:13:45.673Z,0.00
2017-11-03T00:14:45.670Z,0.00
2017-11-03T00:15:45.665Z,0.00
2017-11-03T00:16:45.662Z,0.00
2017-11-03T00:17:45.658Z,0.00
2017-11-03T00:18:45.652Z,0.00
2017-11-03T00:19:45.648Z,0.00
2017-11-03T00:20:45.649Z,0.00
2017-11-03T00:21:45.643Z,0.00
2017-11-03T00:22:45.640Z,0.00
2017-11-03T00:23:45.637Z,0.00
2017-11-03T00:24:45.632Z,0.00
2017-11-03T00:25:45.628Z,0.00
2017-11-03T00:26:45.624Z,0.00
2017-11-03T00:27:45.620Z,0.00
2017-11-03T00:28:45.612Z,0.00
2017-11-03T00:29:45.607Z,0.00
2017-11-03T00:30:45.605Z,0.00
2017-11-03T00:31:45.598Z,0.00
2017-11-03T00:32:45.595Z,0.00
2017-11-03T00:33:45.596Z,0.00
2017-11-03T00:34:45.594Z,0.00
2017-11-03T00:35:45.582Z,0.00
2017-11-03T00:36:45.585Z,0.00
2017-11-03T00:37:45.581Z,0.00
2017-11-03T00:38:45.574Z,0.00
2017-11-03T00:39:45.570Z,0.00
2017-11-03T00:40:45.565Z,0.00
2017-11-03T00:41:45.562Z,0.00
2017-11-03T00:42:45.558Z,0.00
2017-11-03T00:43:45.556Z,0.00
2017-11-03T00:44:45.548Z,0.00
2017-11-03T00:45:45.539Z,0.00
2017-11-03T00:46:45.536Z,0.00
2017-11-03T00:47:45.531Z,0.00
2017-11-03T00:48:45.528Z,0.00
2017-11-03T00:49:45.523Z,0.00
2017-11-03T00:50:45.520Z,0.00
2017-11-03T00:51:45.515Z,0.00
2017-11-03T00:52:45.514Z,0.00
2017-11-03T00:53:45.511Z,0.00
2017-11-03T00:54:45.508Z,0.00
2017-11-03T00:55:45.502Z,0.00
2017-11-03T00:56:45.515Z,0.00
2017-11-03T00:57:45.494Z,0.00
2017-11-03T00:58:45.490Z,0.00
2017-11-03T00:59:45.485Z,0.00
2017-11-03T01:00:45.477Z,0.00
2017-11-03T01:01:45.473Z,0.00
2017-11-03T01:02:45.468Z,0.00
2017-11-03T01:03:45.464Z,0.00
2017-11-03T01:04:45.464Z,0.00
2017-11-03T01:05:45.459Z,0.00
2017-11-03T01:06:45.456Z,0.00
2017-11-03T01:07:45.451Z,0.00
2017-11-03T01:08:45.443Z,0.00
2017-11-03T01:09:45.438Z,0.00
2017-11-03T01:10:45.436Z,0.00
2017-11-03T01:11:45.431Z,0.00
2017-11-03T01:12:45.447Z,0.00
2017-11-03T01:13:45.422Z,0.00
2017-11-03T01:14:45.418Z,0.00
2017-11-03T01:15:45.417Z,0.00
2017-11-03T01:16:45.414Z,0.00
2017-11-03T01:17:45.411Z,0.00
2017-11-03T01:18:45.405Z,0.00
2017-11-03T01:19:45.403Z,0.00
2017-11-03T01:20:45.396Z,0.00
2017-11-03T01:21:45.393Z,0.00
2017-11-03T01:22:45.389Z,0.00
2017-11-03T01:23:45.385Z,0.00
2017-11-03T01:24:45.377Z,0.00
2017-11-03T01:25:45.371Z,0.00
2017-11-03T01:26:45.368Z,0.00
2017-11-03T01:27:45.363Z,0.00
2017-11-03T01:28:45.359Z,0.00
2017-11-03T01:29:45.356Z,0.00
2017-11-03T01:30:45.352Z,0.00
2017-11-03T01:31:45.348Z,0.00
2017-11-03T01:32:45.347Z,0.00
2017-11-03T01:33:45.343Z,0.00
2017-11-03T01:34:45.342Z,0.00
2017-11-03T01:35:45.335Z,0.00
2017-11-03T01:36:45.329Z,0.00
2017-11-03T01:37:45.327Z,0.00
2017-11-03T01:38:45.322Z,0.00
2017-11-03T01:39:45.317Z,0.00
2017-11-03T01:40:45.309Z,0.00
2017-11-03T01:41:45.305Z,0.00
2017-11-03T01:42:45.302Z,0.00
2017-11-03T01:43:45.296Z,0.00
2017-11-03T01:44:45.291Z,0.00
2017-11-03T01:45:45.294Z,0.00
2017-11-03T01:46:45.284Z,0.00
2017-11-03T01:47:45.278Z,0.00
2017-11-03T01:48:45.280Z,0.00
2017-11-03T01:49:45.275Z,0.00
2017-11-03T01:50:45.271Z,0.00
2017-11-03T01:51:45.267Z,0.00
2017-11-03T01:52:45.262Z,0.00
2017-11-03T01:53:45.258Z,0.00
2017-11-03T01:54:45.257Z,0.00
2017-11-03T01:55:45.248Z,0.00
2017-11-03T01:56:45.242Z,0.00
2017-11-03T01:57:45.237Z,0.00
2017-11-03T01:58:45.234Z,0.00
2017-11-03T01:59:45.235Z,0.00
2017-11-03T02:00:45.224Z,0.00
2017-11-03T02:01:45.220Z,0.00
2017-11-03T02:02:45.217Z,0.00
2017-11-03T02:03:45.212Z,0.00
2017-11-03T02:04:45.213Z,0.00
2017-11-03T02:05:45.208Z,0.00
2017-11-03T02:06:45.203Z,0.00
2017-11-03T02:07:45.203Z,0.00
2017-11-03T02:08:45.190Z,0.00
2017-11-03T02:09:45.191Z,0.00
2017-11-03T02:10:45.182Z,0.00
2017-11-03T02:11:45.177Z,0.00
2017-11-03T02:12:45.178Z,0.00
2017-11-03T02:13:45.174Z,0.00
2017-11-03T02:14:45.169Z,0.00
2017-11-03T02:15:45.163Z,0.00
2017-11-03T02:16:45.159Z,0.00
2017-11-03T02:17:45.162Z,0.00
2017-11-03T02:18:45.151Z,0.00
2017-11-03T02:19:45.147Z,0.00
2017-11-03T02:20:45.139Z,0.00
2017-11-03T02:21:45.134Z,0.00
2017-11-03T02:22:45.130Z,0.00
2017-11-03T02:23:45.125Z,0.00
2017-11-03T02:24:45.122Z,0.00
2017-11-03T02:25:45.117Z,0.00
2017-11-03T02:26:45.113Z,0.00
2017-11-03T02:27:45.106Z,0.00
2017-11-03T02:28:45.108Z,0.00
2017-11-03T02:29:45.104Z,0.00
2017-11-03T02:30:45.100Z,0.00
2017-11-03T02:31:45.093Z,0.00
2017-11-03T02:32:45.091Z,0.00
2017-11-03T02:33:45.094Z,0.00
2017-11-03T02:34:45.082Z,0.00
2017-11-03T02:35:45.076Z,0.00
2017-11-03T02:36:45.068Z,0.00
2017-11-03T02:37:45.064Z,0.00
2017-11-03T02:38:45.060Z,0.00
2017-11-03T02:39:45.055Z,0.00
2017-11-03T02:40:45.052Z,0.00
2017-11-03T02:41:45.047Z,0.00
2017-11-03T02:42:45.043Z,0.00
2017-11-03T02:43:45.038Z,0.00
2017-11-03T02:44:45.038Z,0.00
2017-11-03T02:45:45.038Z,0.00
2017-11-03T02:46:45.031Z,0.00
2017-11-03T02:47:45.025Z,0.00
2017-11-03T02:48:45.022Z,0.00
2017-11-03T02:49:45.018Z,0.00
2017-11-03T02:50:45.013Z,0.00
2017-11-03T02:51:45.007Z,0.00
2017-11-03T02:52:44.999Z,0.00
2017-11-03T02:53:44.995Z,0.00
2017-11-03T02:54:44.991Z,0.00
2017-11-03T02:55:44.985Z,0.00
2017-11-03T02:56:44.984Z,0.00
2017-11-03T02:57:44.976Z,0.00
2017-11-03T02:58:44.978Z,0.00
2017-11-03T02:59:44.968Z,0.00
2017-11-03T03:00:44.967Z,0.00
2017-11-03T03:01:44.964Z,0.00
2017-11-03T03:02:44.960Z,0.00
2017-11-03T03:03:44.954Z,0.00
2017-11-03T03:04:44.950Z,0.00
2017-11-03T03:05:44.947Z,0.00
2017-11-03T03:06:44.942Z,0.00
2017-11-03T03:07:44.938Z,0.00
2017-11-03T03:08:44.929Z,0.00
2017-11-03T03:09:44.924Z,0.00
2017-11-03T03:10:44.928Z,0.00
2017-11-03T03:11:44.915Z,0.00
2017-11-03T03:12:44.914Z,0.00
2017-11-03T03:13:44.912Z,0.00
2017-11-03T03:14:44.906Z,0.00
2017-11-03T03:15:44.902Z,0.00
2017-11-03T03:16:44.894Z,0.00
2017-11-03T03:17:44.891Z,0.00
2017-11-03T03:18:44.886Z,0.00
2017-11-03T03:19:44.880Z,0.00
2017-11-03T03:20:44.875Z,0.00
2017-11-03T03:21:44.872Z,0.00
2017-11-03T03:22:44.869Z,0.00
2017-11-03T03:23:44.862Z,0.00
2017-11-03T03:24:44.866Z,0.00
2017-11-03T03:25:44.873Z,0.00
2017-11-03T03:26:44.856Z,0.00
2017-11-03T03:27:44.851Z,0.00
2017-11-03T03:28:44.847Z,0.00
2017-11-03T03:29:44.841Z,0.00
2017-11-03T03:30:44.839Z,0.00
2017-11-03T03:31:44.833Z,0.00
2017-11-03T03:32:44.825Z,0.00
2017-11-03T03:33:44.820Z,0.00
2017-11-03T03:34:44.816Z,0.00
2017-11-03T03:35:44.810Z,0.00
2017-11-03T03:36:44.805Z,0.00
2017-11-03T03:37:44.802Z,0.00
2017-11-03T03:38:44.799Z,0.00
2017-11-03T03:39:44.793Z,0.00
2017-11-03T03:40:44.793Z,0.00
2017-11-03T03:41:44.788Z,0.00
2017-11-03T03:42:44.784Z,0.00
2017-11-03T03:43:44.780Z,0.00
2017-11-03T03:44:44.774Z,0.00
2017-11-03T03:45:44.772Z,0.00
2017-11-03T03:46:44.767Z,0.00
2017-11-03T03:47:44.761Z,0.00
2017-11-03T03:48:44.753Z,0.00
2017-11-03T03:49:44.749Z,0.00
2017-11-03T03:50:44.746Z,0.00
2017-11-03T03:51:44.743Z,0.00
2017-11-03T03:52:44.737Z,0.00
2017-11-03T03:53:44.733Z,0.00
2017-11-03T03:54:44.728Z,0.00
2017-11-03T03:55:44.722Z,0.00
2017-11-03T03:56:44.722Z,0.00
2017-11-03T03:57:44.718Z,0.00
2017-11-03T03:58:44.728Z,0.00
2017-11-03T03:59:44.709Z,0.00
2017-11-03T04:00:44.705Z,0.00
2017-11-03T04:01:44.701Z,0.00
2017-11-03T04:02:44.697Z,0.00
2017-11-03T04:03:44.692Z,0.00
2017-11-03T04:04:44.682Z,0.00
2017-11-03T04:05:44.679Z,0.00
2017-11-03T04:06:44.675Z,0.00
2017-11-03T04:07:44.669Z,0.00
2017-11-03T04:08:44.667Z,0.00
2017-11-03T04:09:44.661Z,0.00
2017-11-03T04:10:44.657Z,0.00
2017-11-03T04:11:44.653Z,0.00
2017-11-03T04:12:44.653Z,0.00
2017-11-03T04:13:44.649Z,0.00
2017-11-03T04:14:44.645Z,0.00
2017-11-03T04:15:44.638Z,0.00
2017-11-03T04:16:44.635Z,0.00
2017-11-03T04:17:44.630Z,0.00
2017-11-03T04:18:44.626Z,0.00
2017-11-03T04:19:44.621Z,0.00
2017-11-03T04:20:44.613Z,0.00
2017-11-03T04:21:44.609Z,0.00
2017-11-03T04:22:44.605Z,0.00
2017-11-03T04:23:44.600Z,0.00
2017-11-03T04:24:44.595Z,0.00
2017-11-03T04:25:44.591Z,0.00
2017-11-03T04:26:44.586Z,0.00
2017-11-03T04:27:44.582Z,0.00
2017-11-03T04:28:44.582Z,0.00
2017-11-03T04:29:44.579Z,0.00
2017-11-03T04:30:44.574Z,0.00
2017-11-03T04:31:44.568Z,0.00
2017-11-03T04:32:44.563Z,0.00
2017-11-03T04:33:44.560Z,0.00
2017-11-03T04:34:44.558Z,0.00
2017-11-03T04:35:44.551Z,0.00
2017-11-03T04:36:44.543Z,0.00
2017-11-03T04:37:44.539Z,0.00
2017-11-03T04:38:44.534Z,0.00
2017-11-03T04:39:44.530Z,0.00
2017-11-03T04:40:44.526Z,0.00
2017-11-03T04:41:44.521Z,0.00
2017-11-03T04:42:44.518Z,0.00
2017-11-03T04:43:44.514Z,0.00
2017-11-03T04:44:44.512Z,0.00
2017-11-03T04:45:44.508Z,0.00
2017-11-03T04:46:44.504Z,0.00
2017-11-03T04:47:44.501Z,0.00
2017-11-03T04:48:44.495Z,0.00
2017-11-03T04:49:44.491Z,0.00
2017-11-03T04:50:44.486Z,0.00
2017-11-03T04:51:44.481Z,0.00
2017-11-03T04:52:44.472Z,0.00
2017-11-03T04:53:44.468Z,0.00
2017-11-03T04:54:44.464Z,0.00
2017-11-03T04:55:44.460Z,0.00
2017-11-03T04:56:44.455Z,0.00
2017-11-03T04:57:44.451Z,0.00
2017-11-03T04:58:44.447Z,0.00
2017-11-03T04:59:44.440Z,0.00
2017-11-03T05:00:44.440Z,0.00
2017-11-03T05:01:44.437Z,0.00
2017-11-03T05:02:44.431Z,0.00
2017-11-03T05:03:44.428Z,0.00
2017-11-03T05:04:44.424Z,0.00
2017-11-03T05:05:44.420Z,0.00
2017-11-03T05:06:44.414Z,0.00
2017-11-03T05:07:44.410Z,0.00
2017-11-03T05:08:44.403Z,0.00
2017-11-03T05:09:44.398Z,0.00
2017-11-03T05:10:44.413Z,0.00
2017-11-03T05:11:44.388Z,0.00
2017-11-03T05:12:44.390Z,0.00
2017-11-03T05:13:44.381Z,0.00
2017-11-03T05:14:44.376Z,0.00
2017-11-03T05:15:44.370Z,0.00
2017-11-03T05:16:44.372Z,0.00
2017-11-03T05:17:44.375Z,0.00
2017-11-03T05:18:44.362Z,0.00
2017-11-03T05:19:44.356Z,0.00
2017-11-03T05:20:44.349Z,0.00
2017-11-03T05:21:44.344Z,0.00
2017-11-03T05:22:44.340Z,0.00
2017-11-03T05:23:44.336Z,0.00
2017-11-03T05:24:44.335Z,0.00
2017-11-03T05:25:44.331Z,0.00
2017-11-03T05:26:44.328Z,0.00
2017-11-03T05:27:44.321Z,0.00
2017-11-03T05:28:44.317Z,0.00
2017-11-03T05:29:44.315Z,0.00
2017-11-03T05:30:44.311Z,0.00
2017-11-03T05:31:44.305Z,0.00
2017-11-03T05:32:44.296Z,0.00
2017-11-03T05:33:44.292Z,0.00
2017-11-03T05:34:44.289Z,0.00
2017-11-03T05:35:44.284Z,0.00
2017-11-03T05:36:44.279Z,0.00
2017-11-03T05:37:44.275Z,0.00
2017-11-03T05:38:44.271Z,0.00
2017-11-03T05:39:44.265Z,0.00
2017-11-03T05:40:44.266Z,0.00
2017-11-03T05:41:44.262Z,0.00
2017-11-03T05:42:44.256Z,0.00
2017-11-03T05:43:44.253Z,0.00
2017-11-03T05:44:44.248Z,0.00
2017-11-03T05:45:44.244Z,0.00
2017-11-03T05:46:44.240Z,0.00
2017-11-03T05:47:44.235Z,0.00
2017-11-03T05:48:44.226Z,0.00
2017-11-03T05:49:44.223Z,0.00
2017-11-03T05:50:44.217Z,0.00
2017-11-03T05:51:44.214Z,0.00
2017-11-03T05:52:44.209Z,0.00
2017-11-03T05:53:44.205Z,0.00
2017-11-03T05:54:44.201Z,0.00
2017-11-03T05:55:44.195Z,0.00
2017-11-03T05:56:44.195Z,0.00
2017-11-03T05:57:44.191Z,0.00
2017-11-03T05:58:44.186Z,0.00
2017-11-03T05:59:44.186Z,0.00
2017-11-03T06:00:44.178Z,0.00
2017-11-03T06:01:44.174Z,0.00
2017-11-03T06:02:44.170Z,4.00
2017-11-03T06:03:44.164Z,4.00
2017-11-03T06:04:44.157Z,4.00
2017-11-03T06:05:44.153Z,0.00
2017-11-03T06:06:44.148Z,4.00
2017-11-03T06:07:44.146Z,0.00
2017-11-03T06:08:44.139Z,4.00
2017-11-03T06:09:44.135Z,4.00
2017-11-03T06:10:44.131Z,4.00
2017-11-03T06:11:44.126Z,4.00
2017-11-03T06:12:44.126Z,4.00
2017-11-03T06:13:44.121Z,4.00
2017-11-03T06:14:44.118Z,8.00
2017-11-03T06:15:44.119Z,12.00
2017-11-03T06:16:44.108Z,12.00
2017-11-03T06:17:44.110Z,12.00
2017-11-03T06:18:44.099Z,12.00
2017-11-03T06:19:44.095Z,12.00
2017-11-03T06:20:44.087Z,12.00
2017-11-03T06:21:44.081Z,16.00
2017-11-03T06:22:44.078Z,20.00
2017-11-03T06:23:44.073Z,20.00
2017-11-03T06:24:44.075Z,24.00
2017-11-03T06:25:44.068Z,28.00
2017-11-03T06:26:44.064Z,32.00
2017-11-03T06:27:44.060Z,36.00
2017-11-03T06:28:44.051Z,52.00
2017-11-03T06:29:44.052Z,56.00
2017-11-03T06:30:44.042Z,56.00
2017-11-03T06:31:44.037Z,60.00
2017-11-03T06:32:44.033Z,72.00
2017-11-03T06:33:44.028Z,88.00
2017-11-03T06:34:44.030Z,104.00
2017-11-03T06:35:44.019Z,116.00
2017-11-03T06:36:44.020Z,120.00
2017-11-03T06:37:44.014Z,124.00
2017-11-03T06:38:44.012Z,128.00
2017-11-03T06:39:44.007Z,148.00
2017-11-03T06:40:44.003Z,168.00
2017-11-03T06:41:43.998Z,188.00
2017-11-03T06:42:43.995Z,196.00
2017-11-03T06:43:43.987Z,204.00
2017-11-03T06:44:43.982Z,228.00
2017-11-03T06:45:43.977Z,268.00
2017-11-03T06:46:43.971Z,292.00
2017-11-03T06:47:43.966Z,308.00
2017-11-03T06:48:43.962Z,320.00
2017-11-03T06:49:43.958Z,348.00
2017-11-03T06:50:43.953Z,348.00
2017-11-03T06:51:43.949Z,356.00
2017-11-03T06:52:43.949Z,372.00
2017-11-03T06:53:43.945Z,388.00
2017-11-03T06:54:43.939Z,404.00
2017-11-03T06:55:43.935Z,424.00
2017-11-03T06:56:43.930Z,416.00
2017-11-03T06:57:43.926Z,412.00
2017-11-03T06:58:43.923Z,440.00
2017-11-03T06:59:43.917Z,492.00
2017-11-03T07:00:43.909Z,528.00
2017-11-03T07:01:43.905Z,528.00
2017-11-03T07:02:43.900Z,528.00
2017-11-03T07:03:43.896Z,536.00
2017-11-03T07:04:43.891Z,540.00
2017-11-03T07:05:43.887Z,528.00
2017-11-03T07:06:43.884Z,516.00
2017-11-03T07:07:43.876Z,520.00
2017-11-03T07:08:43.879Z,544.00
2017-11-03T07:09:43.874Z,612.00
2017-11-03T07:10:43.869Z,648.00
2017-11-03T07:11:43.865Z,596.00
2017-11-03T07:12:43.859Z,496.00
2017-11-03T07:13:43.854Z,408.00
2017-11-03T07:14:43.851Z,380.00
2017-11-03T07:15:43.845Z,384.00
2017-11-03T07:16:43.838Z,352.00
2017-11-03T07:17:43.834Z,296.00
2017-11-03T07:18:43.830Z,260.00
2017-11-03T07:19:43.825Z,244.00
2017-11-03T07:20:43.819Z,244.00
2017-11-03T07:21:43.819Z,240.00
2017-11-03T07:22:43.813Z,248.00
2017-11-03T07:23:43.807Z,264.00
2017-11-03T07:24:43.811Z,280.00
2017-11-03T07:25:43.802Z,300.00
2017-11-03T07:26:43.798Z,308.00
2017-11-03T07:27:43.794Z,312.00
2017-11-03T07:28:43.785Z,316.00
2017-11-03T07:29:43.781Z,316.00
2017-11-03T07:30:43.782Z,328.00
2017-11-03T07:31:43.771Z,344.00
2017-11-03T07:32:43.776Z,368.00
2017-11-03T07:33:43.768Z,396.00
2017-11-03T07:34:43.768Z,400.00
2017-11-03T07:35:43.760Z,412.00
2017-11-03T07:36:43.754Z,448.00
2017-11-03T07:37:43.751Z,484.00
2017-11-03T07:38:43.747Z,492.00
2017-11-03T07:39:43.742Z,492.00
2017-11-03T07:40:43.733Z,492.00
2017-11-03T07:41:43.728Z,500.00
2017-11-03T07:42:43.725Z,496.00
2017-11-03T07:43:43.720Z,544.00
2017-11-03T07:44:43.724Z,556.00
2017-11-03T07:45:43.713Z,560.00
2017-11-03T07:46:43.708Z,596.00
2017-11-03T07:47:43.703Z,672.00
2017-11-03T07:48:43.705Z,764.00
2017-11-03T07:49:43.699Z,772.00
2017-11-03T07:50:43.694Z,776.00
2017-11-03T07:51:43.690Z,812.00
2017-11-03T07:52:43.699Z,808.00
2017-11-03T07:53:43.682Z,768.00
2017-11-03T07:54:43.678Z,704.00
2017-11-03T07:55:43.672Z,684.00
2017-11-03T07:56:43.665Z,752.00
2017-11-03T07:57:43.659Z,824.00
2017-11-03T07:58:43.656Z,856.00
2017-11-03T07:59:43.651Z,760.00
2017-11-03T08:00:43.647Z,668.00
2017-11-03T08:01:43.643Z,668.00
2017-11-03T08:02:43.639Z,648.00
2017-11-03T08:03:43.634Z,632.00
2017-11-03T08:04:43.635Z,604.00
2017-11-03T08:05:43.630Z,576.00
2017-11-03T08:06:43.626Z,612.00
2017-11-03T08:07:43.621Z,716.00
2017-11-03T08:08:43.617Z,768.00
2017-11-03T08:09:43.613Z,884.00
2017-11-03T08:10:43.609Z,1044.00
2017-11-03T08:11:43.608Z,1044.00
2017-11-03T08:12:43.595Z,968.00
2017-11-03T08:13:43.592Z,976.00
2017-11-03T08:14:43.587Z,976.00
2017-11-03T08:15:43.581Z,1048.00
2017-11-03T08:16:43.578Z,1124.00
2017-11-03T08:17:43.574Z,1124.00
2017-11-03T08:18:43.569Z,1192.00
2017-11-03T08:19:43.564Z,1284.00
2017-11-03T08:20:43.568Z,1464.00
2017-11-03T08:21:43.560Z,1540.00
2017-11-03T08:22:43.555Z,1496.00
2017-11-03T08:23:43.552Z,1456.00
2017-11-03T08:24:43.547Z,1476.00
2017-11-03T08:25:43.544Z,1420.00
2017-11-03T08:26:43.538Z,1296.00
2017-11-03T08:27:43.535Z,1204.00
2017-11-03T08:28:43.526Z,1192.00
2017-11-03T08:29:43.522Z,1076.00
2017-11-03T08:30:43.517Z,900.00
2017-11-03T08:31:43.513Z,908.00
2017-11-03T08:32:43.509Z,980.00
2017-11-03T08:33:43.504Z,1132.00
2017-11-03T08:34:43.501Z,1328.00
2017-11-03T08:35:43.494Z,1564.00
2017-11-03T08:36:43.495Z,1924.00
2017-11-03T08:37:43.492Z,2392.00
2017-11-03T08:38:43.486Z,2480.00
2017-11-03T08:39:43.482Z,2436.00
2017-11-03T08:40:43.478Z,2472.00
2017-11-03T08:41:43.474Z,2548.00
2017-11-03T08:42:43.470Z,2572.00
2017-11-03T08:43:43.465Z,2576.00
2017-11-03T08:44:43.458Z,2592.00
2017-11-03T08:45:43.457Z,2604.00
2017-11-03T08:46:43.449Z,2540.00
2017-11-03T08:47:43.444Z,2516.00
2017-11-03T08:48:43.447Z,2764.00
2017-11-03T08:49:43.436Z,3032.00
2017-11-03T08:50:43.431Z,3144.00
2017-11-03T08:51:43.427Z,3280.00
2017-11-03T08:52:43.428Z,3424.00
2017-11-03T08:53:43.423Z,3356.00
2017-11-03T08:54:43.420Z,3328.00
2017-11-03T08:55:43.415Z,3476.00
2017-11-03T08:56:43.412Z,3564.00
2017-11-03T08:57:43.408Z,3452.00
2017-11-03T08:58:43.404Z,3352.00
2017-11-03T08:59:43.399Z,3360.00
2017-11-03T09:00:43.391Z,3420.00
2017-11-03T09:01:43.388Z,3708.00
2017-11-03T09:02:43.385Z,4016.00
2017-11-03T09:03:43.381Z,4200.00
2017-11-03T09:04:43.377Z,4480.00
2017-11-03T09:05:43.372Z,4500.00
2017-11-03T09:06:43.368Z,4104.00
2017-11-03T09:07:43.365Z,3756.00
2017-11-03T09:08:43.365Z,3720.00
2017-11-03T09:09:43.362Z,4168.00
2017-11-03T09:10:43.358Z,4848.00
2017-11-03T09:11:43.355Z,5292.00
2017-11-03T09:12:43.352Z,5504.00
2017-11-03T09:13:43.349Z,5536.00
2017-11-03T09:14:43.345Z,5444.00
2017-11-03T09:15:43.340Z,5364.00
2017-11-03T09:16:43.333Z,5248.00
2017-11-03T09:17:43.329Z,5304.00
2017-11-03T09:18:43.327Z,5280.00
2017-11-03T09:19:43.323Z,5208.00
2017-11-03T09:20:43.319Z,5188.00
2017-11-03T09:21:43.315Z,5260.00
2017-11-03T09:22:43.315Z,5364.00
2017-11-03T09:23:43.309Z,5380.00
2017-11-03T09:24:43.315Z,5084.00
2017-11-03T09:25:43.308Z,5156.00
2017-11-03T09:26:43.305Z,5252.00
2017-11-03T09:27:43.300Z,5412.00
2017-11-03T09:28:43.302Z,5548.00
2017-11-03T09:29:43.294Z,5376.00
2017-11-03T09:30:43.290Z,4856.00
2017-11-03T09:31:43.288Z,4624.00
2017-11-03T09:32:43.280Z,4892.00
2017-11-03T09:33:43.277Z,4972.00
2017-11-03T09:34:43.274Z,4872.00
2017-11-03T09:35:43.270Z,4768.00
2017-11-03T09:36:43.271Z,4772.00
2017-11-03T09:37:43.271Z,4780.00
2017-11-03T09:38:43.272Z,4824.00
2017-11-03T09:39:43.260Z,4948.00
2017-11-03T09:40:43.255Z,4984.00
2017-11-03T09:41:43.251Z,4952.00
2017-11-03T09:42:43.248Z,4824.00
2017-11-03T09:43:43.244Z,4696.00
2017-11-03T09:44:43.241Z,4592.00
2017-11-03T09:45:43.238Z,4488.00
2017-11-03T09:46:43.236Z,4404.00
2017-11-03T09:47:43.232Z,4376.00
2017-11-03T09:48:43.233Z,4360.00
2017-11-03T09:49:43.231Z,4500.00
2017-11-03T09:50:43.227Z,4708.00
2017-11-03T09:51:43.223Z,4872.00
2017-11-03T09:52:43.220Z,5008.00
2017-11-03T09:53:43.218Z,5140.00
2017-11-03T09:54:43.214Z,5220.00
2017-11-03T09:55:43.209Z,5228.00
2017-11-03T09:56:43.203Z,5168.00
2017-11-03T09:57:43.218Z,5104.00
2017-11-03T09:58:43.197Z,5072.00
2017-11-03T09:59:43.193Z,5096.00
2017-11-03T10:00:43.188Z,5092.00
2017-11-03T10:01:43.187Z,5004.00
2017-11-03T10:02:43.183Z,4972.00
2017-11-03T10:03:43.179Z,4932.00
2017-11-03T10:04:43.188Z,4824.00
2017-11-03T10:05:43.178Z,4644.00
2017-11-03T10:06:43.174Z,4564.00
2017-11-03T10:07:43.174Z,4704.00
2017-11-03T10:08:43.166Z,4892.00
2017-11-03T10:09:43.164Z,4968.00
2017-11-03T10:10:43.164Z,5096.00
2017-11-03T10:11:43.157Z,5384.00
2017-11-03T10:12:43.150Z,5620.00
2017-11-03T10:13:43.145Z,5688.00
2017-11-03T10:14:43.143Z,5584.00
2017-11-03T10:15:43.138Z,5776.00
2017-11-03T10:16:43.136Z,6060.00
2017-11-03T10:17:43.133Z,6320.00
2017-11-03T10:18:43.130Z,6048.00
2017-11-03T10:19:43.126Z,5536.00
2017-11-03T10:20:43.128Z,5484.00
2017-11-03T10:21:43.124Z,5604.00
2017-11-03T10:22:43.123Z,5532.00
2017-11-03T10:23:43.118Z,5476.00
2017-11-03T10:24:43.115Z,5352.00
2017-11-03T10:25:43.112Z,5196.00
2017-11-03T10:26:43.109Z,5088.00
2017-11-03T10:27:43.104Z,5248.00
2017-11-03T10:28:43.097Z,5476.00
2017-11-03T10:29:43.096Z,5636.00
2017-11-03T10:30:43.094Z,5716.00
2017-11-03T10:31:43.089Z,5796.00
2017-11-03T10:32:43.086Z,5780.00
2017-11-03T10:33:43.083Z,5636.00
2017-11-03T10:34:43.083Z,5464.00
2017-11-03T10:35:43.080Z,5284.00
2017-11-03T10:36:43.077Z,5140.00
2017-11-03T10:37:43.075Z,4920.00
2017-11-03T10:38:43.071Z,4728.00
2017-11-03T10:39:43.067Z,4460.00
2017-11-03T10:40:43.060Z,4260.00
2017-11-03T10:41:43.059Z,4204.00
2017-11-03T10:42:43.056Z,4368.00
2017-11-03T10:43:43.052Z,4836.00
2017-11-03T10:44:43.056Z,5252.00
2017-11-03T10:45:43.051Z,7948.00
2017-11-03T10:46:43.048Z,6720.00
2017-11-03T10:47:43.044Z,6340.00
2017-11-03T10:48:43.047Z,7496.00
2017-11-03T10:49:43.038Z,9064.00
2017-11-03T10:50:43.035Z,9956.00
2017-11-03T10:51:43.032Z,10048.00
2017-11-03T10:52:43.025Z,10080.00
2017-11-03T10:53:43.024Z,9480.00
2017-11-03T10:54:43.022Z,8092.00
2017-11-03T10:55:43.018Z,6884.00
2017-11-03T10:56:43.018Z,6504.00
2017-11-03T10:57:43.015Z,6292.00
2017-11-03T10:58:43.013Z,6332.00
2017-11-03T10:59:43.008Z,6448.00
2017-11-03T11:00:43.018Z,6720.00
2017-11-03T11:01:43.009Z,7304.00
2017-11-03T11:02:43.008Z,8052.00
2017-11-03T11:03:43.005Z,8280.00
2017-11-03T11:04:43.004Z,8272.00
2017-11-03T11:05:43.003Z,8752.00
2017-11-03T11:06:43.003Z,12392.00
2017-11-03T11:07:42.998Z,10204.00
2017-11-03T11:08:42.992Z,16160.00
2017-11-03T11:09:42.992Z,18464.00
2017-11-03T11:10:42.990Z,14848.00
2017-11-03T11:11:42.988Z,20096.00
2017-11-03T11:12:42.987Z,16512.00
2017-11-03T11:13:42.986Z,11336.00
2017-11-03T11:14:42.987Z,11064.00
2017-11-03T11:15:42.985Z,10628.00
2017-11-03T11:16:42.990Z,10520.00
2017-11-03T11:17:42.989Z,10340.00
2017-11-03T11:18:42.988Z,9892.00
2017-11-03T11:19:42.987Z,9280.00
2017-11-03T11:20:42.989Z,8540.00
2017-11-03T11:21:42.988Z,8216.00
2017-11-03T11:22:42.988Z,8120.00
2017-11-03T11:23:42.986Z,8088.00
2017-11-03T11:24:42.982Z,8028.00
2017-11-03T11:25:42.984Z,7948.00
2017-11-03T11:26:42.983Z,7868.00
2017-11-03T11:27:42.982Z,7664.00
2017-11-03T11:28:42.981Z,7536.00
2017-11-03T11:29:42.983Z,7596.00
2017-11-03T11:30:42.983Z,7740.00
2017-11-03T11:31:42.982Z,7864.00
2017-11-03T11:32:42.988Z,7836.00
2017-11-03T11:33:42.988Z,7664.00
2017-11-03T11:34:42.997Z,7516.00
2017-11-03T11:35:42.986Z,7524.00
2017-11-03T11:36:42.987Z,7564.00
2017-11-03T11:37:42.986Z,7512.00
2017-11-03T11:38:42.986Z,7424.00
2017-11-03T11:39:42.986Z,7316.00
2017-11-03T11:40:42.980Z,7248.00
2017-11-03T11:41:42.980Z,7080.00
2017-11-03T11:42:42.979Z,6900.00
2017-11-03T11:43:42.978Z,6804.00
2017-11-03T11:44:42.982Z,6448.00
2017-11-03T11:45:42.981Z,6404.00
2017-11-03T11:46:42.980Z,6456.00
2017-11-03T11:47:42.979Z,6568.00
2017-11-03T11:48:42.976Z,6568.00
2017-11-03T11:49:42.984Z,6480.00
2017-11-03T11:50:43.002Z,6204.00
2017-11-03T11:51:42.973Z,6340.00
2017-11-03T11:52:42.971Z,6332.00
2017-11-03T11:53:42.970Z,6416.00
2017-11-03T11:54:42.971Z,6372.00
2017-11-03T11:55:42.968Z,6220.00
2017-11-03T11:56:42.971Z,5992.00
2017-11-03T11:57:42.971Z,5916.00
2017-11-03T11:58:42.970Z,5432.00
2017-11-03T11:59:42.968Z,5332.00
2017-11-03T12:00:42.968Z,5200.00
2017-11-03T12:01:42.967Z,5108.00
2017-11-03T12:02:42.966Z,5056.00
2017-11-03T12:03:42.965Z,5272.00
2017-11-03T12:04:42.959Z,6084.00
2017-11-03T12:05:42.959Z,6464.00
2017-11-03T12:06:42.957Z,6044.00
2017-11-03T12:07:42.953Z,6380.00
2017-11-03T12:08:42.954Z,6932.00
2017-11-03T12:09:42.951Z,6944.00
2017-11-03T12:10:42.951Z,6080.00
2017-11-03T12:11:42.950Z,5312.00
2017-11-03T12:12:42.952Z,5328.00
2017-11-03T12:13:42.952Z,5148.00
2017-11-03T12:14:42.949Z,4588.00
2017-11-03T12:15:42.948Z,4792.00
2017-11-03T12:16:42.947Z,4696.00
2017-11-03T12:17:42.944Z,4532.00
2017-11-03T12:18:42.944Z,4892.00
2017-11-03T12:19:42.939Z,5896.00
2017-11-03T12:20:42.933Z,6412.00
2017-11-03T12:21:42.933Z,5856.00
2017-11-03T12:22:42.934Z,5536.00
2017-11-03T12:23:42.929Z,6036.00
2017-11-03T12:24:42.928Z,6264.00
2017-11-03T12:25:42.925Z,6348.00
2017-11-03T12:26:42.925Z,6140.00
2017-11-03T12:27:42.922Z,5444.00
2017-11-03T12:28:42.924Z,5256.00
2017-11-03T12:29:42.923Z,5092.00
2017-11-03T12:30:42.921Z,4852.00
2017-11-03T12:31:42.918Z,4580.00
2017-11-03T12:32:42.917Z,4580.00
2017-11-03T12:33:42.915Z,4784.00
2017-11-03T12:34:42.915Z,4456.00
2017-11-03T12:35:42.912Z,4436.00
2017-11-03T12:36:42.908Z,4368.00
2017-11-03T12:37:42.903Z,4096.00
2017-11-03T12:38:42.903Z,3764.00
2017-11-03T12:39:42.898Z,3728.00
2017-11-03T12:40:42.898Z,3660.00
2017-11-03T12:41:42.896Z,3500.00
2017-11-03T12:42:42.894Z,3396.00
2017-11-03T12:43:42.892Z,3284.00